Etusivu
METAR-TAF:

METAR-TAF

Lentoasemat :

Skavstan lentoasema

Tukholma-Skavsta, Ruotsi

Leveyspiiri: 58-47N, Pituuspiiri: 016-55E, korkeus merenpinnasta: 43 m

Tämänhetkinen sää

Tämä raportti tehtiin 15 minuuttia sitten, kello 08.20 UTC
Tuuli 15 kn lounaasta
Lämpötila 17°C
Kosteus 88%
Ilmanpaine 1005 hPa
Näkyvyys 10 km tai enemmän
Hajonneita pilviä 1300 ft:n korkeudessa

METAR: ESKN 140820Z 23015KT 9999 BKN013 17/15 Q1005

Aika: 10:35 (08:35 UTC)

Sääennuste

Tämä raportti tehtiin 1 tunti ja 6 minuuttia sitten, kello 07.29 UTC
Ennuste voimassa 14. päivästä klo 07 UTC - 15. päivään klo 06 UTC
Tuuli 8 kn lounaasta
Näkyvyys 10 km tai enemmän
Hajonneita pilviä 700 ft:n korkeudessa
Tulossa
14. päivästä klo 07 UTC - 14. päivään klo 09 UTC
Hajanaisia pilviä 2000 ft:n korkeudessa

TAF: ESKN 140729Z 1407/1506 23008KT 9999 BKN007 BECMG 1407/1409 SCT020

Säähavainnot ja -ennusteet yli 4000 lentoasemalta (METAR- ja TAF-raportit).

Käytössä olevat sääasemat on merkitty karttaan keltaisilla ja punaisilla pisteillä.

Aseta hiiri pisteen päälle nähdäksesi sääaseman nimen.

Klikkaa sitten nähdäksesi säähavainnot ja -ennusteet.

Kartan vaihtaminen: klikkaa mustalla rastilla varustettuja vihreitä pisteitä, niin voit zoomata sisään; viivalla varustettua vihreää pistettä, niin voit zoomata ulos tai vihreitä nuolia, niin pääset viereisille kartoille.


METAR-TAF: